sensor_id;sensor_type;location;lat;lon;timestamp;P1;durP1;ratioP1;P2;durP2;ratioP2
7707;SDS011;3896;48.758;8.888;2024-01-30T00:00:42;6.30;;;3.30;;
7707;SDS011;3896;48.758;8.888;2024-01-30T00:03:07;5.80;;;3.37;;
7707;SDS011;3896;48.758;8.888;2024-01-30T00:05:33;5.23;;;3.67;;
7707;SDS011;3896;48.758;8.888;2024-01-30T00:07:58;6.10;;;3.30;;
7707;SDS011;3896;48.758;8.888;2024-01-30T00:10:24;6.10;;;3.83;;
7707;SDS011;3896;48.758;8.888;2024-01-30T00:12:50;4.77;;;3.40;;
7707;SDS011;3896;48.758;8.888;2024-01-30T00:15:15;7.97;;;4.13;;
7707;SDS011;3896;48.758;8.888;2024-01-30T00:17:41;5.00;;;3.60;;
7707;SDS011;3896;48.758;8.888;2024-01-30T00:20:07;4.80;;;3.87;;
7707;SDS011;3896;48.758;8.888;2024-01-30T00:22:34;4.77;;;3.70;;
7707;SDS011;3896;48.758;8.888;2024-01-30T00:25:00;4.00;;;3.40;;
7707;SDS011;3896;48.758;8.888;2024-01-30T00:27:25;5.33;;;3.70;;
7707;SDS011;3896;48.758;8.888;2024-01-30T00:29:52;4.47;;;3.37;;
7707;SDS011;3896;48.758;8.888;2024-01-30T00:32:18;4.03;;;3.60;;
7707;SDS011;3896;48.758;8.888;2024-01-30T00:34:44;8.83;;;4.50;;
7707;SDS011;3896;48.758;8.888;2024-01-30T00:37:10;6.33;;;4.40;;
7707;SDS011;3896;48.758;8.888;2024-01-30T00:39:35;3.73;;;3.30;;
7707;SDS011;3896;48.758;8.888;2024-01-30T00:42:01;5.93;;;4.13;;
7707;SDS011;3896;48.758;8.888;2024-01-30T00:44:27;3.57;;;2.83;;
7707;SDS011;3896;48.758;8.888;2024-01-30T00:46:53;5.03;;;3.70;;
7707;SDS011;3896;48.758;8.888;2024-01-30T00:49:18;3.00;;;2.63;;
7707;SDS011;3896;48.758;8.888;2024-01-30T00:51:44;5.13;;;3.63;;
7707;SDS011;3896;48.758;8.888;2024-01-30T00:54:11;3.07;;;2.80;;
7707;SDS011;3896;48.758;8.888;2024-01-30T00:56:36;3.53;;;3.20;;
7707;SDS011;3896;48.758;8.888;2024-01-30T00:59:02;5.27;;;3.37;;
7707;SDS011;3896;48.758;8.888;2024-01-30T01:01:27;2.37;;;2.20;;
7707;SDS011;3896;48.758;8.888;2024-01-30T01:03:53;4.20;;;2.57;;
7707;SDS011;3896;48.758;8.888;2024-01-30T01:06:19;3.23;;;2.10;;
7707;SDS011;3896;48.758;8.888;2024-01-30T01:08:44;2.93;;;2.67;;
7707;SDS011;3896;48.758;8.888;2024-01-30T01:11:10;9.37;;;5.10;;
7707;SDS011;3896;48.758;8.888;2024-01-30T01:13:35;14.37;;;6.10;;
7707;SDS011;3896;48.758;8.888;2024-01-30T01:16:01;18.37;;;9.07;;
7707;SDS011;3896;48.758;8.888;2024-01-30T01:18:26;4.60;;;3.73;;
7707;SDS011;3896;48.758;8.888;2024-01-30T01:20:52;4.37;;;3.50;;
7707;SDS011;3896;48.758;8.888;2024-01-30T01:23:17;4.37;;;3.30;;
7707;SDS011;3896;48.758;8.888;2024-01-30T01:25:43;4.23;;;2.40;;
7707;SDS011;3896;48.758;8.888;2024-01-30T01:28:09;4.13;;;2.93;;
7707;SDS011;3896;48.758;8.888;2024-01-30T01:30:35;3.33;;;3.00;;
7707;SDS011;3896;48.758;8.888;2024-01-30T01:33:00;3.50;;;2.97;;
7707;SDS011;3896;48.758;8.888;2024-01-30T01:35:27;5.17;;;2.70;;
7707;SDS011;3896;48.758;8.888;2024-01-30T01:37:53;4.13;;;2.57;;
7707;SDS011;3896;48.758;8.888;2024-01-30T01:40:24;2.83;;;2.60;;
7707;SDS011;3896;48.758;8.888;2024-01-30T01:42:51;4.00;;;2.77;;
7707;SDS011;3896;48.758;8.888;2024-01-30T01:45:17;4.93;;;3.00;;
7707;SDS011;3896;48.758;8.888;2024-01-30T01:47:43;4.00;;;2.53;;
7707;SDS011;3896;48.758;8.888;2024-01-30T01:50:11;2.47;;;2.30;;
7707;SDS011;3896;48.758;8.888;2024-01-30T01:52:40;3.93;;;2.90;;
7707;SDS011;3896;48.758;8.888;2024-01-30T01:55:06;5.70;;;3.17;;
7707;SDS011;3896;48.758;8.888;2024-01-30T01:57:33;3.13;;;2.80;;
7707;SDS011;3896;48.758;8.888;2024-01-30T01:59:59;3.37;;;2.50;;
7707;SDS011;3896;48.758;8.888;2024-01-30T02:02:26;2.50;;;2.10;;
7707;SDS011;3896;48.758;8.888;2024-01-30T02:04:55;3.80;;;2.50;;
7707;SDS011;3896;48.758;8.888;2024-01-30T02:07:22;2.43;;;2.20;;
7707;SDS011;3896;48.758;8.888;2024-01-30T02:09:48;4.70;;;2.40;;
7707;SDS011;3896;48.758;8.888;2024-01-30T02:12:13;3.97;;;2.60;;
7707;SDS011;3896;48.758;8.888;2024-01-30T02:14:45;3.63;;;3.00;;
7707;SDS011;3896;48.758;8.888;2024-01-30T02:17:11;3.87;;;3.03;;
7707;SDS011;3896;48.758;8.888;2024-01-30T02:19:37;4.63;;;2.73;;
7707;SDS011;3896;48.758;8.888;2024-01-30T02:22:03;5.27;;;2.80;;
7707;SDS011;3896;48.758;8.888;2024-01-30T02:24:29;2.60;;;2.40;;
7707;SDS011;3896;48.758;8.888;2024-01-30T02:26:55;3.70;;;2.60;;
7707;SDS011;3896;48.758;8.888;2024-01-30T02:29:20;3.07;;;2.70;;
7707;SDS011;3896;48.758;8.888;2024-01-30T02:31:46;4.17;;;2.30;;
7707;SDS011;3896;48.758;8.888;2024-01-30T02:34:12;3.87;;;2.50;;
7707;SDS011;3896;48.758;8.888;2024-01-30T02:36:38;3.17;;;2.77;;
7707;SDS011;3896;48.758;8.888;2024-01-30T02:39:07;2.70;;;2.20;;
7707;SDS011;3896;48.758;8.888;2024-01-30T02:41:33;2.60;;;2.40;;
7707;SDS011;3896;48.758;8.888;2024-01-30T02:57:04;4.57;;;2.90;;
7707;SDS011;3896;48.758;8.888;2024-01-30T02:59:31;3.53;;;2.43;;
7707;SDS011;3896;48.758;8.888;2024-01-30T03:02:08;2.90;;;2.50;;
7707;SDS011;3896;48.758;8.888;2024-01-30T03:04:34;4.07;;;2.83;;
7707;SDS011;3896;48.758;8.888;2024-01-30T03:06:59;3.73;;;2.63;;
7707;SDS011;3896;48.758;8.888;2024-01-30T03:09:25;3.00;;;2.70;;
7707;SDS011;3896;48.758;8.888;2024-01-30T03:11:50;5.40;;;2.93;;
7707;SDS011;3896;48.758;8.888;2024-01-30T03:14:16;3.43;;;2.87;;
7707;SDS011;3896;48.758;8.888;2024-01-30T03:16:41;2.60;;;2.40;;
7707;SDS011;3896;48.758;8.888;2024-01-30T03:19:07;4.10;;;2.90;;
7707;SDS011;3896;48.758;8.888;2024-01-30T03:21:34;2.63;;;2.40;;
7707;SDS011;3896;48.758;8.888;2024-01-30T03:23:59;4.03;;;2.90;;
7707;SDS011;3896;48.758;8.888;2024-01-30T03:26:25;3.23;;;2.73;;
7707;SDS011;3896;48.758;8.888;2024-01-30T03:28:50;4.47;;;2.93;;
7707;SDS011;3896;48.758;8.888;2024-01-30T03:31:16;3.13;;;2.60;;
7707;SDS011;3896;48.758;8.888;2024-01-30T03:33:43;4.57;;;2.80;;
7707;SDS011;3896;48.758;8.888;2024-01-30T03:36:08;3.17;;;2.20;;
7707;SDS011;3896;48.758;8.888;2024-01-30T03:38:34;5.10;;;2.63;;
7707;SDS011;3896;48.758;8.888;2024-01-30T03:41:00;3.57;;;2.50;;
7707;SDS011;3896;48.758;8.888;2024-01-30T03:43:26;3.13;;;2.43;;
7707;SDS011;3896;48.758;8.888;2024-01-30T03:45:52;2.57;;;2.37;;
7707;SDS011;3896;48.758;8.888;2024-01-30T03:48:17;3.07;;;2.30;;
7707;SDS011;3896;48.758;8.888;2024-01-30T03:50:44;2.93;;;2.13;;
7707;SDS011;3896;48.758;8.888;2024-01-30T03:53:09;3.57;;;2.53;;
7707;SDS011;3896;48.758;8.888;2024-01-30T03:55:35;2.57;;;2.30;;
7707;SDS011;3896;48.758;8.888;2024-01-30T03:58:00;2.80;;;2.60;;
7707;SDS011;3896;48.758;8.888;2024-01-30T04:00:26;3.37;;;2.63;;
7707;SDS011;3896;48.758;8.888;2024-01-30T04:02:51;3.00;;;2.30;;
7707;SDS011;3896;48.758;8.888;2024-01-30T04:05:17;3.27;;;2.20;;
7707;SDS011;3896;48.758;8.888;2024-01-30T04:07:42;3.23;;;2.20;;
7707;SDS011;3896;48.758;8.888;2024-01-30T04:10:09;2.90;;;2.53;;
7707;SDS011;3896;48.758;8.888;2024-01-30T04:12:35;2.70;;;2.50;;
7707;SDS011;3896;48.758;8.888;2024-01-30T04:15:01;2.50;;;2.30;;
7707;SDS011;3896;48.758;8.888;2024-01-30T04:17:27;3.93;;;2.73;;
7707;SDS011;3896;48.758;8.888;2024-01-30T04:19:54;2.60;;;2.40;;
7707;SDS011;3896;48.758;8.888;2024-01-30T04:22:19;4.20;;;2.53;;
7707;SDS011;3896;48.758;8.888;2024-01-30T04:24:45;2.70;;;2.50;;
7707;SDS011;3896;48.758;8.888;2024-01-30T04:27:10;2.97;;;2.40;;
7707;SDS011;3896;48.758;8.888;2024-01-30T04:29:36;4.50;;;2.83;;
7707;SDS011;3896;48.758;8.888;2024-01-30T04:32:01;2.97;;;2.40;;
7707;SDS011;3896;48.758;8.888;2024-01-30T04:34:27;2.67;;;2.40;;
7707;SDS011;3896;48.758;8.888;2024-01-30T04:36:52;3.90;;;2.67;;
7707;SDS011;3896;48.758;8.888;2024-01-30T04:39:18;2.23;;;2.03;;
7707;SDS011;3896;48.758;8.888;2024-01-30T04:41:43;2.00;;;1.90;;
7707;SDS011;3896;48.758;8.888;2024-01-30T04:44:09;2.97;;;2.50;;
7707;SDS011;3896;48.758;8.888;2024-01-30T04:46:34;3.77;;;2.50;;
7707;SDS011;3896;48.758;8.888;2024-01-30T04:49:00;3.47;;;2.43;;
7707;SDS011;3896;48.758;8.888;2024-01-30T04:51:25;4.80;;;2.40;;
7707;SDS011;3896;48.758;8.888;2024-01-30T04:53:51;4.90;;;2.60;;
7707;SDS011;3896;48.758;8.888;2024-01-30T04:56:16;6.73;;;2.93;;
7707;SDS011;3896;48.758;8.888;2024-01-30T04:58:42;7.57;;;3.53;;
7707;SDS011;3896;48.758;8.888;2024-01-30T05:01:07;2.50;;;2.30;;
7707;SDS011;3896;48.758;8.888;2024-01-30T05:03:33;3.57;;;2.70;;
7707;SDS011;3896;48.758;8.888;2024-01-30T05:06:00;3.20;;;2.57;;
7707;SDS011;3896;48.758;8.888;2024-01-30T05:08:25;3.03;;;2.23;;
7707;SDS011;3896;48.758;8.888;2024-01-30T05:10:51;3.40;;;2.60;;
7707;SDS011;3896;48.758;8.888;2024-01-30T05:13:16;4.63;;;3.03;;
7707;SDS011;3896;48.758;8.888;2024-01-30T05:15:42;3.27;;;2.40;;
7707;SDS011;3896;48.758;8.888;2024-01-30T05:18:07;3.40;;;2.50;;
7707;SDS011;3896;48.758;8.888;2024-01-30T05:20:33;3.73;;;2.33;;
7707;SDS011;3896;48.758;8.888;2024-01-30T05:22:58;4.77;;;3.20;;
7707;SDS011;3896;48.758;8.888;2024-01-30T05:25:24;4.70;;;2.80;;
7707;SDS011;3896;48.758;8.888;2024-01-30T05:27:49;4.50;;;2.90;;
7707;SDS011;3896;48.758;8.888;2024-01-30T05:30:15;3.03;;;2.73;;
7707;SDS011;3896;48.758;8.888;2024-01-30T05:32:40;3.30;;;2.73;;
7707;SDS011;3896;48.758;8.888;2024-01-30T05:35:06;2.90;;;2.57;;
7707;SDS011;3896;48.758;8.888;2024-01-30T05:37:33;3.60;;;2.60;;
7707;SDS011;3896;48.758;8.888;2024-01-30T05:39:58;2.20;;;2.10;;
7707;SDS011;3896;48.758;8.888;2024-01-30T05:42:24;5.83;;;2.60;;
7707;SDS011;3896;48.758;8.888;2024-01-30T05:44:50;3.67;;;2.63;;
7707;SDS011;3896;48.758;8.888;2024-01-30T05:47:15;4.63;;;3.03;;
7707;SDS011;3896;48.758;8.888;2024-01-30T05:49:41;4.73;;;3.00;;
7707;SDS011;3896;48.758;8.888;2024-01-30T05:52:07;4.87;;;2.90;;
7707;SDS011;3896;48.758;8.888;2024-01-30T05:54:32;6.37;;;3.10;;
7707;SDS011;3896;48.758;8.888;2024-01-30T05:56:58;7.73;;;3.00;;
7707;SDS011;3896;48.758;8.888;2024-01-30T05:59:24;3.33;;;3.00;;
7707;SDS011;3896;48.758;8.888;2024-01-30T06:01:49;3.73;;;2.97;;
7707;SDS011;3896;48.758;8.888;2024-01-30T06:04:15;3.73;;;2.70;;
7707;SDS011;3896;48.758;8.888;2024-01-30T06:06:41;4.30;;;2.63;;
7707;SDS011;3896;48.758;8.888;2024-01-30T06:09:06;3.20;;;2.90;;
7707;SDS011;3896;48.758;8.888;2024-01-30T06:11:35;2.87;;;2.50;;
7707;SDS011;3896;48.758;8.888;2024-01-30T06:14:00;3.17;;;2.70;;
7707;SDS011;3896;48.758;8.888;2024-01-30T06:16:26;3.73;;;2.80;;
7707;SDS011;3896;48.758;8.888;2024-01-30T06:18:54;3.13;;;2.70;;
7707;SDS011;3896;48.758;8.888;2024-01-30T06:21:20;4.67;;;2.73;;
7707;SDS011;3896;48.758;8.888;2024-01-30T06:23:46;4.07;;;2.67;;
7707;SDS011;3896;48.758;8.888;2024-01-30T06:26:11;3.43;;;2.43;;
7707;SDS011;3896;48.758;8.888;2024-01-30T06:28:37;4.40;;;2.47;;
7707;SDS011;3896;48.758;8.888;2024-01-30T06:31:03;3.87;;;3.10;;
7707;SDS011;3896;48.758;8.888;2024-01-30T06:33:28;3.17;;;2.70;;
7707;SDS011;3896;48.758;8.888;2024-01-30T06:35:54;2.73;;;2.53;;
7707;SDS011;3896;48.758;8.888;2024-01-30T06:38:19;3.17;;;2.70;;
7707;SDS011;3896;48.758;8.888;2024-01-30T06:40:45;3.17;;;2.87;;
7707;SDS011;3896;48.758;8.888;2024-01-30T06:43:10;5.80;;;2.90;;
7707;SDS011;3896;48.758;8.888;2024-01-30T06:45:36;6.07;;;3.60;;
7707;SDS011;3896;48.758;8.888;2024-01-30T06:48:02;8.57;;;3.30;;
7707;SDS011;3896;48.758;8.888;2024-01-30T06:50:28;5.23;;;2.80;;
7707;SDS011;3896;48.758;8.888;2024-01-30T06:52:53;4.50;;;2.60;;
7707;SDS011;3896;48.758;8.888;2024-01-30T06:55:19;4.57;;;2.77;;
7707;SDS011;3896;48.758;8.888;2024-01-30T06:57:44;4.57;;;2.63;;
7707;SDS011;3896;48.758;8.888;2024-01-30T07:00:10;2.83;;;2.57;;
7707;SDS011;3896;48.758;8.888;2024-01-30T07:02:36;4.13;;;2.93;;
7707;SDS011;3896;48.758;8.888;2024-01-30T07:05:02;3.13;;;2.83;;
7707;SDS011;3896;48.758;8.888;2024-01-30T07:07:28;3.37;;;2.50;;
7707;SDS011;3896;48.758;8.888;2024-01-30T07:09:54;3.07;;;2.53;;
7707;SDS011;3896;48.758;8.888;2024-01-30T07:12:21;3.40;;;2.47;;
7707;SDS011;3896;48.758;8.888;2024-01-30T07:14:51;3.40;;;2.93;;
7707;SDS011;3896;48.758;8.888;2024-01-30T07:17:16;3.10;;;2.73;;
7707;SDS011;3896;48.758;8.888;2024-01-30T07:19:42;4.97;;;3.00;;
7707;SDS011;3896;48.758;8.888;2024-01-30T07:22:08;5.73;;;2.97;;
7707;SDS011;3896;48.758;8.888;2024-01-30T07:24:33;5.87;;;3.17;;
7707;SDS011;3896;48.758;8.888;2024-01-30T07:26:59;5.83;;;3.23;;
7707;SDS011;3896;48.758;8.888;2024-01-30T07:29:25;2.80;;;2.20;;
7707;SDS011;3896;48.758;8.888;2024-01-30T07:31:50;3.40;;;2.73;;
7707;SDS011;3896;48.758;8.888;2024-01-30T07:34:16;2.90;;;2.57;;
7707;SDS011;3896;48.758;8.888;2024-01-30T07:36:41;4.03;;;2.70;;
7707;SDS011;3896;48.758;8.888;2024-01-30T07:39:07;2.97;;;2.70;;
7707;SDS011;3896;48.758;8.888;2024-01-30T07:41:33;4.80;;;2.87;;
7707;SDS011;3896;48.758;8.888;2024-01-30T07:43:58;4.03;;;3.23;;
7707;SDS011;3896;48.758;8.888;2024-01-30T07:46:25;3.40;;;2.50;;
7707;SDS011;3896;48.758;8.888;2024-01-30T07:48:50;3.30;;;2.70;;
7707;SDS011;3896;48.758;8.888;2024-01-30T07:51:16;5.73;;;3.07;;
7707;SDS011;3896;48.758;8.888;2024-01-30T07:53:41;3.00;;;2.70;;
7707;SDS011;3896;48.758;8.888;2024-01-30T07:56:07;3.27;;;2.97;;
7707;SDS011;3896;48.758;8.888;2024-01-30T07:58:32;3.27;;;2.70;;
7707;SDS011;3896;48.758;8.888;2024-01-30T08:00:58;3.17;;;2.27;;
7707;SDS011;3896;48.758;8.888;2024-01-30T08:03:25;3.57;;;2.50;;
7707;SDS011;3896;48.758;8.888;2024-01-30T08:05:51;3.23;;;2.90;;
7707;SDS011;3896;48.758;8.888;2024-01-30T08:08:16;5.43;;;3.10;;
7707;SDS011;3896;48.758;8.888;2024-01-30T08:10:42;4.30;;;2.30;;
7707;SDS011;3896;48.758;8.888;2024-01-30T08:13:07;4.47;;;2.90;;
7707;SDS011;3896;48.758;8.888;2024-01-30T08:15:34;4.80;;;3.70;;
7707;SDS011;3896;48.758;8.888;2024-01-30T08:17:59;4.30;;;3.23;;
7707;SDS011;3896;48.758;8.888;2024-01-30T08:20:25;4.80;;;3.50;;
7707;SDS011;3896;48.758;8.888;2024-01-30T08:22:51;9.87;;;3.70;;
7707;SDS011;3896;48.758;8.888;2024-01-30T08:25:17;3.63;;;2.90;;
7707;SDS011;3896;48.758;8.888;2024-01-30T08:27:42;5.80;;;3.53;;
7707;SDS011;3896;48.758;8.888;2024-01-30T08:30:09;3.23;;;2.97;;
7707;SDS011;3896;48.758;8.888;2024-01-30T08:32:34;3.60;;;2.70;;
7707;SDS011;3896;48.758;8.888;2024-01-30T08:35:00;4.50;;;3.03;;
7707;SDS011;3896;48.758;8.888;2024-01-30T08:37:28;5.60;;;3.20;;
7707;SDS011;3896;48.758;8.888;2024-01-30T08:39:54;6.17;;;3.67;;
7707;SDS011;3896;48.758;8.888;2024-01-30T08:42:20;5.90;;;3.67;;
7707;SDS011;3896;48.758;8.888;2024-01-30T08:44:47;7.00;;;4.13;;
7707;SDS011;3896;48.758;8.888;2024-01-30T08:47:14;4.77;;;4.33;;
7707;SDS011;3896;48.758;8.888;2024-01-30T08:49:41;6.03;;;4.63;;
7707;SDS011;3896;48.758;8.888;2024-01-30T08:52:09;6.90;;;5.20;;
7707;SDS011;3896;48.758;8.888;2024-01-30T08:54:35;7.70;;;6.20;;
7707;SDS011;3896;48.758;8.888;2024-01-30T08:57:00;10.60;;;6.60;;
7707;SDS011;3896;48.758;8.888;2024-01-30T08:59:26;8.63;;;6.00;;
7707;SDS011;3896;48.758;8.888;2024-01-30T09:01:51;8.27;;;6.63;;
7707;SDS011;3896;48.758;8.888;2024-01-30T09:04:20;10.50;;;6.37;;
7707;SDS011;3896;48.758;8.888;2024-01-30T09:06:46;10.63;;;7.10;;
7707;SDS011;3896;48.758;8.888;2024-01-30T09:09:12;8.67;;;5.97;;
7707;SDS011;3896;48.758;8.888;2024-01-30T09:11:39;6.67;;;5.27;;
7707;SDS011;3896;48.758;8.888;2024-01-30T09:14:05;7.07;;;5.27;;
7707;SDS011;3896;48.758;8.888;2024-01-30T09:16:31;6.70;;;6.03;;
7707;SDS011;3896;48.758;8.888;2024-01-30T09:18:57;8.20;;;5.50;;
7707;SDS011;3896;48.758;8.888;2024-01-30T09:21:22;6.90;;;4.90;;
7707;SDS011;3896;48.758;8.888;2024-01-30T09:23:48;7.00;;;4.77;;
7707;SDS011;3896;48.758;8.888;2024-01-30T09:26:13;8.70;;;5.37;;
7707;SDS011;3896;48.758;8.888;2024-01-30T09:28:39;8.07;;;5.97;;
7707;SDS011;3896;48.758;8.888;2024-01-30T09:31:09;10.07;;;5.87;;
7707;SDS011;3896;48.758;8.888;2024-01-30T09:33:35;9.93;;;5.97;;
7707;SDS011;3896;48.758;8.888;2024-01-30T09:36:01;9.50;;;6.63;;
7707;SDS011;3896;48.758;8.888;2024-01-30T09:38:26;8.70;;;5.90;;
7707;SDS011;3896;48.758;8.888;2024-01-30T09:40:53;11.53;;;6.50;;
7707;SDS011;3896;48.758;8.888;2024-01-30T09:43:22;7.40;;;6.57;;
7707;SDS011;3896;48.758;8.888;2024-01-30T09:45:49;10.37;;;6.43;;
7707;SDS011;3896;48.758;8.888;2024-01-30T09:48:15;9.33;;;6.13;;
7707;SDS011;3896;48.758;8.888;2024-01-30T09:50:41;9.67;;;7.10;;
7707;SDS011;3896;48.758;8.888;2024-01-30T09:53:07;17.30;;;9.93;;
7707;SDS011;3896;48.758;8.888;2024-01-30T09:55:34;27.47;;;13.90;;
7707;SDS011;3896;48.758;8.888;2024-01-30T09:58:01;39.70;;;16.60;;
7707;SDS011;3896;48.758;8.888;2024-01-30T10:00:27;25.00;;;11.53;;
7707;SDS011;3896;48.758;8.888;2024-01-30T10:02:52;19.93;;;10.53;;
7707;SDS011;3896;48.758;8.888;2024-01-30T10:05:19;16.70;;;9.23;;
7707;SDS011;3896;48.758;8.888;2024-01-30T10:07:54;22.50;;;10.43;;
7707;SDS011;3896;48.758;8.888;2024-01-30T10:10:23;17.63;;;10.53;;
7707;SDS011;3896;48.758;8.888;2024-01-30T10:12:49;17.30;;;9.93;;
7707;SDS011;3896;48.758;8.888;2024-01-30T10:15:15;16.00;;;8.40;;
7707;SDS011;3896;48.758;8.888;2024-01-30T10:17:42;13.73;;;8.53;;
7707;SDS011;3896;48.758;8.888;2024-01-30T10:20:08;11.13;;;6.27;;
7707;SDS011;3896;48.758;8.888;2024-01-30T10:22:34;10.93;;;6.53;;
7707;SDS011;3896;48.758;8.888;2024-01-30T10:25:00;10.40;;;6.23;;
7707;SDS011;3896;48.758;8.888;2024-01-30T10:27:26;11.00;;;6.73;;
7707;SDS011;3896;48.758;8.888;2024-01-30T10:29:52;10.30;;;7.27;;
7707;SDS011;3896;48.758;8.888;2024-01-30T10:32:18;10.43;;;6.67;;
7707;SDS011;3896;48.758;8.888;2024-01-30T10:34:44;9.67;;;6.30;;
7707;SDS011;3896;48.758;8.888;2024-01-30T10:37:10;10.23;;;5.80;;
7707;SDS011;3896;48.758;8.888;2024-01-30T10:39:38;7.43;;;5.10;;
7707;SDS011;3896;48.758;8.888;2024-01-30T10:42:05;9.87;;;6.47;;
7707;SDS011;3896;48.758;8.888;2024-01-30T10:44:41;9.23;;;6.33;;
7707;SDS011;3896;48.758;8.888;2024-01-30T10:47:11;8.33;;;6.57;;
7707;SDS011;3896;48.758;8.888;2024-01-30T10:49:41;12.50;;;6.73;;
7707;SDS011;3896;48.758;8.888;2024-01-30T10:52:08;8.73;;;6.37;;
7707;SDS011;3896;48.758;8.888;2024-01-30T10:54:34;8.77;;;5.47;;
7707;SDS011;3896;48.758;8.888;2024-01-30T10:57:01;7.83;;;5.00;;
7707;SDS011;3896;48.758;8.888;2024-01-30T10:59:28;10.13;;;6.20;;
7707;SDS011;3896;48.758;8.888;2024-01-30T11:01:56;5.83;;;5.23;;
7707;SDS011;3896;48.758;8.888;2024-01-30T11:04:23;8.20;;;5.80;;
7707;SDS011;3896;48.758;8.888;2024-01-30T11:06:50;7.97;;;4.83;;
7707;SDS011;3896;48.758;8.888;2024-01-30T11:09:16;7.23;;;4.70;;
7707;SDS011;3896;48.758;8.888;2024-01-30T11:11:56;10.17;;;6.10;;
7707;SDS011;3896;48.758;8.888;2024-01-30T11:14:27;10.83;;;5.00;;
7707;SDS011;3896;48.758;8.888;2024-01-30T11:16:57;10.63;;;5.23;;
7707;SDS011;3896;48.758;8.888;2024-01-30T11:19:24;13.00;;;5.63;;
7707;SDS011;3896;48.758;8.888;2024-01-30T11:21:55;9.87;;;6.77;;
7707;SDS011;3896;48.758;8.888;2024-01-30T11:24:22;10.73;;;6.37;;
7707;SDS011;3896;48.758;8.888;2024-01-30T11:26:57;11.70;;;7.17;;
7707;SDS011;3896;48.758;8.888;2024-01-30T11:29:27;7.57;;;5.77;;
7707;SDS011;3896;48.758;8.888;2024-01-30T11:31:56;10.87;;;6.37;;
7707;SDS011;3896;48.758;8.888;2024-01-30T11:34:23;9.07;;;7.17;;
7707;SDS011;3896;48.758;8.888;2024-01-30T11:36:58;13.50;;;6.70;;
7707;SDS011;3896;48.758;8.888;2024-01-30T11:39:31;11.17;;;7.37;;
7707;SDS011;3896;48.758;8.888;2024-01-30T11:41:57;11.63;;;7.97;;
7707;SDS011;3896;48.758;8.888;2024-01-30T11:44:24;12.53;;;8.17;;
7707;SDS011;3896;48.758;8.888;2024-01-30T11:46:51;9.47;;;7.43;;
7707;SDS011;3896;48.758;8.888;2024-01-30T11:49:17;11.00;;;7.30;;
7707;SDS011;3896;48.758;8.888;2024-01-30T11:51:43;10.57;;;6.97;;
7707;SDS011;3896;48.758;8.888;2024-01-30T11:54:11;13.70;;;7.70;;
7707;SDS011;3896;48.758;8.888;2024-01-30T11:56:37;13.83;;;8.17;;
7707;SDS011;3896;48.758;8.888;2024-01-30T11:59:03;7.90;;;6.00;;
7707;SDS011;3896;48.758;8.888;2024-01-30T12:01:29;7.47;;;6.13;;
7707;SDS011;3896;48.758;8.888;2024-01-30T12:03:56;12.33;;;7.27;;
7707;SDS011;3896;48.758;8.888;2024-01-30T12:06:23;13.43;;;9.70;;
7707;SDS011;3896;48.758;8.888;2024-01-30T12:08:58;11.77;;;7.77;;
7707;SDS011;3896;48.758;8.888;2024-01-30T12:11:25;9.37;;;7.87;;
7707;SDS011;3896;48.758;8.888;2024-01-30T12:13:52;12.63;;;7.73;;
7707;SDS011;3896;48.758;8.888;2024-01-30T12:16:18;13.20;;;8.03;;
7707;SDS011;3896;48.758;8.888;2024-01-30T12:18:44;11.27;;;7.27;;
7707;SDS011;3896;48.758;8.888;2024-01-30T12:21:10;10.97;;;7.03;;
7707;SDS011;3896;48.758;8.888;2024-01-30T12:23:35;12.67;;;7.20;;
7707;SDS011;3896;48.758;8.888;2024-01-30T12:26:01;10.90;;;6.70;;
7707;SDS011;3896;48.758;8.888;2024-01-30T12:28:31;9.23;;;6.63;;
7707;SDS011;3896;48.758;8.888;2024-01-30T12:31:01;9.90;;;6.87;;
7707;SDS011;3896;48.758;8.888;2024-01-30T12:33:28;12.27;;;6.37;;
7707;SDS011;3896;48.758;8.888;2024-01-30T12:35:54;9.27;;;6.00;;
7707;SDS011;3896;48.758;8.888;2024-01-30T12:38:20;10.53;;;5.53;;
7707;SDS011;3896;48.758;8.888;2024-01-30T12:40:46;7.73;;;5.07;;
7707;SDS011;3896;48.758;8.888;2024-01-30T12:43:13;15.57;;;7.60;;
7707;SDS011;3896;48.758;8.888;2024-01-30T12:45:38;10.53;;;5.63;;
7707;SDS011;3896;48.758;8.888;2024-01-30T12:48:04;10.77;;;5.37;;
7707;SDS011;3896;48.758;8.888;2024-01-30T12:50:30;11.67;;;5.10;;
7707;SDS011;3896;48.758;8.888;2024-01-30T12:52:56;6.30;;;4.37;;
7707;SDS011;3896;48.758;8.888;2024-01-30T12:55:21;9.30;;;4.40;;
7707;SDS011;3896;48.758;8.888;2024-01-30T12:57:47;8.03;;;4.30;;
7707;SDS011;3896;48.758;8.888;2024-01-30T13:00:13;7.27;;;4.73;;
7707;SDS011;3896;48.758;8.888;2024-01-30T13:02:38;7.77;;;4.00;;
7707;SDS011;3896;48.758;8.888;2024-01-30T13:05:04;8.90;;;4.97;;
7707;SDS011;3896;48.758;8.888;2024-01-30T13:07:30;8.27;;;4.77;;
7707;SDS011;3896;48.758;8.888;2024-01-30T13:09:58;10.00;;;5.90;;
7707;SDS011;3896;48.758;8.888;2024-01-30T13:12:27;9.90;;;5.67;;
7707;SDS011;3896;48.758;8.888;2024-01-30T13:14:53;7.53;;;5.60;;
7707;SDS011;3896;48.758;8.888;2024-01-30T13:17:19;8.17;;;5.83;;
7707;SDS011;3896;48.758;8.888;2024-01-30T13:19:45;9.53;;;5.63;;
7707;SDS011;3896;48.758;8.888;2024-01-30T13:22:11;10.47;;;6.03;;
7707;SDS011;3896;48.758;8.888;2024-01-30T13:24:37;6.33;;;4.90;;
7707;SDS011;3896;48.758;8.888;2024-01-30T13:27:02;6.60;;;4.70;;
7707;SDS011;3896;48.758;8.888;2024-01-30T13:29:30;6.27;;;5.00;;
7707;SDS011;3896;48.758;8.888;2024-01-30T13:31:56;8.13;;;4.87;;
7707;SDS011;3896;48.758;8.888;2024-01-30T13:34:21;8.40;;;4.87;;
7707;SDS011;3896;48.758;8.888;2024-01-30T13:36:47;7.57;;;4.47;;
7707;SDS011;3896;48.758;8.888;2024-01-30T13:39:13;6.93;;;4.97;;
7707;SDS011;3896;48.758;8.888;2024-01-30T13:41:40;7.43;;;6.03;;
7707;SDS011;3896;48.758;8.888;2024-01-30T13:44:07;6.57;;;4.60;;
7707;SDS011;3896;48.758;8.888;2024-01-30T13:46:33;6.10;;;4.63;;
7707;SDS011;3896;48.758;8.888;2024-01-30T13:48:59;11.63;;;5.50;;
7707;SDS011;3896;48.758;8.888;2024-01-30T13:51:24;7.20;;;5.47;;
7707;SDS011;3896;48.758;8.888;2024-01-30T13:53:50;7.47;;;4.47;;
7707;SDS011;3896;48.758;8.888;2024-01-30T13:56:16;8.73;;;5.30;;
7707;SDS011;3896;48.758;8.888;2024-01-30T13:58:41;7.53;;;4.90;;
7707;SDS011;3896;48.758;8.888;2024-01-30T14:01:07;7.13;;;4.87;;
7707;SDS011;3896;48.758;8.888;2024-01-30T14:03:34;7.27;;;4.77;;
7707;SDS011;3896;48.758;8.888;2024-01-30T14:06:00;12.33;;;5.57;;
7707;SDS011;3896;48.758;8.888;2024-01-30T14:08:26;10.83;;;6.33;;
7707;SDS011;3896;48.758;8.888;2024-01-30T14:10:53;9.40;;;6.73;;
7707;SDS011;3896;48.758;8.888;2024-01-30T14:13:22;9.60;;;5.67;;
7707;SDS011;3896;48.758;8.888;2024-01-30T14:15:47;9.83;;;5.10;;
7707;SDS011;3896;48.758;8.888;2024-01-30T14:18:14;12.17;;;5.23;;
7707;SDS011;3896;48.758;8.888;2024-01-30T14:20:40;6.80;;;4.60;;
7707;SDS011;3896;48.758;8.888;2024-01-30T14:23:06;10.53;;;4.10;;
7707;SDS011;3896;48.758;8.888;2024-01-30T14:25:31;4.53;;;3.40;;
7707;SDS011;3896;48.758;8.888;2024-01-30T14:27:57;6.17;;;3.53;;
7707;SDS011;3896;48.758;8.888;2024-01-30T14:30:23;6.10;;;3.43;;
7707;SDS011;3896;48.758;8.888;2024-01-30T14:32:48;7.43;;;2.93;;
7707;SDS011;3896;48.758;8.888;2024-01-30T14:35:14;4.77;;;2.80;;
7707;SDS011;3896;48.758;8.888;2024-01-30T14:37:40;6.10;;;3.17;;
7707;SDS011;3896;48.758;8.888;2024-01-30T14:40:06;4.63;;;3.00;;
7707;SDS011;3896;48.758;8.888;2024-01-30T14:42:35;3.80;;;3.27;;
7707;SDS011;3896;48.758;8.888;2024-01-30T14:45:02;5.63;;;3.17;;
7707;SDS011;3896;48.758;8.888;2024-01-30T14:47:31;4.13;;;3.17;;
7707;SDS011;3896;48.758;8.888;2024-01-30T14:49:57;4.93;;;3.00;;
7707;SDS011;3896;48.758;8.888;2024-01-30T14:52:23;5.20;;;3.13;;
7707;SDS011;3896;48.758;8.888;2024-01-30T14:54:48;54.77;;;28.03;;
7707;SDS011;3896;48.758;8.888;2024-01-30T14:57:14;55.97;;;30.93;;
7707;SDS011;3896;48.758;8.888;2024-01-30T14:59:39;19.00;;;11.00;;
7707;SDS011;3896;48.758;8.888;2024-01-30T15:02:05;8.43;;;5.47;;
7707;SDS011;3896;48.758;8.888;2024-01-30T15:04:31;9.07;;;6.40;;
7707;SDS011;3896;48.758;8.888;2024-01-30T15:06:57;9.87;;;5.03;;
7707;SDS011;3896;48.758;8.888;2024-01-30T15:09:22;5.30;;;3.57;;
7707;SDS011;3896;48.758;8.888;2024-01-30T15:11:48;4.87;;;3.20;;
7707;SDS011;3896;48.758;8.888;2024-01-30T15:14:15;3.93;;;2.70;;
7707;SDS011;3896;48.758;8.888;2024-01-30T15:16:40;4.40;;;3.40;;
7707;SDS011;3896;48.758;8.888;2024-01-30T15:19:06;4.57;;;4.03;;